sensor_id;sensor_type;location;lat;lon;timestamp;P1;durP1;ratioP1;P2;durP2;ratioP2
48524;SDS011;34316;51.514;-0.178;2022-11-20T00:00:03;3.55;;;1.23;;
48524;SDS011;34316;51.514;-0.178;2022-11-20T00:02:06;2.97;;;1.20;;
48524;SDS011;34316;51.514;-0.178;2022-11-20T00:04:07;4.03;;;1.20;;
48524;SDS011;34316;51.514;-0.178;2022-11-20T00:06:12;6.57;;;1.52;;
48524;SDS011;34316;51.514;-0.178;2022-11-20T00:08:15;2.75;;;1.10;;
48524;SDS011;34316;51.514;-0.178;2022-11-20T00:10:21;3.78;;;1.33;;
48524;SDS011;34316;51.514;-0.178;2022-11-20T00:12:22;5.82;;;1.30;;
48524;SDS011;34316;51.514;-0.178;2022-11-20T00:14:24;5.80;;;1.23;;
48524;SDS011;34316;51.514;-0.178;2022-11-20T00:16:26;3.58;;;0.85;;
48524;SDS011;34316;51.514;-0.178;2022-11-20T00:18:29;6.85;;;1.83;;
48524;SDS011;34316;51.514;-0.178;2022-11-20T00:20:31;5.63;;;1.20;;
48524;SDS011;34316;51.514;-0.178;2022-11-20T00:22:33;4.72;;;1.35;;
48524;SDS011;34316;51.514;-0.178;2022-11-20T00:24:34;2.90;;;1.30;;
48524;SDS011;34316;51.514;-0.178;2022-11-20T00:26:43;4.20;;;1.27;;
48524;SDS011;34316;51.514;-0.178;2022-11-20T00:28:55;3.72;;;1.10;;
48524;SDS011;34316;51.514;-0.178;2022-11-20T00:31:02;2.72;;;1.00;;
48524;SDS011;34316;51.514;-0.178;2022-11-20T00:33:05;2.63;;;0.85;;
48524;SDS011;34316;51.514;-0.178;2022-11-20T00:35:07;3.35;;;1.30;;
48524;SDS011;34316;51.514;-0.178;2022-11-20T00:37:08;5.43;;;1.20;;
48524;SDS011;34316;51.514;-0.178;2022-11-20T00:39:10;2.63;;;1.10;;
48524;SDS011;34316;51.514;-0.178;2022-11-20T00:41:12;2.50;;;0.80;;
48524;SDS011;34316;51.514;-0.178;2022-11-20T00:43:15;2.90;;;1.40;;
48524;SDS011;34316;51.514;-0.178;2022-11-20T00:45:17;3.08;;;0.90;;
48524;SDS011;34316;51.514;-0.178;2022-11-20T00:47:19;2.15;;;0.90;;
48524;SDS011;34316;51.514;-0.178;2022-11-20T00:49:26;3.75;;;0.75;;
48524;SDS011;34316;51.514;-0.178;2022-11-20T00:51:28;3.55;;;1.02;;
48524;SDS011;34316;51.514;-0.178;2022-11-20T00:53:30;10.93;;;1.30;;
48524;SDS011;34316;51.514;-0.178;2022-11-20T00:55:31;2.97;;;0.90;;
48524;SDS011;34316;51.514;-0.178;2022-11-20T00:57:36;4.22;;;0.77;;
48524;SDS011;34316;51.514;-0.178;2022-11-20T00:59:38;4.82;;;0.90;;
48524;SDS011;34316;51.514;-0.178;2022-11-20T01:01:39;3.17;;;0.88;;
48524;SDS011;34316;51.514;-0.178;2022-11-20T01:03:42;1.83;;;0.90;;
48524;SDS011;34316;51.514;-0.178;2022-11-20T01:05:50;1.95;;;0.95;;
48524;SDS011;34316;51.514;-0.178;2022-11-20T01:07:52;2.65;;;1.00;;
48524;SDS011;34316;51.514;-0.178;2022-11-20T01:09:54;6.85;;;1.48;;
48524;SDS011;34316;51.514;-0.178;2022-11-20T01:11:55;4.07;;;1.17;;
48524;SDS011;34316;51.514;-0.178;2022-11-20T01:13:58;3.55;;;1.15;;
48524;SDS011;34316;51.514;-0.178;2022-11-20T01:16:04;2.73;;;1.00;;
48524;SDS011;34316;51.514;-0.178;2022-11-20T01:18:16;3.33;;;1.13;;
48524;SDS011;34316;51.514;-0.178;2022-11-20T01:20:17;2.40;;;1.08;;
48524;SDS011;34316;51.514;-0.178;2022-11-20T01:22:19;4.13;;;1.10;;
48524;SDS011;34316;51.514;-0.178;2022-11-20T01:24:21;4.38;;;1.10;;
48524;SDS011;34316;51.514;-0.178;2022-11-20T01:26:24;2.55;;;0.90;;
48524;SDS011;34316;51.514;-0.178;2022-11-20T01:28:28;2.35;;;0.90;;
48524;SDS011;34316;51.514;-0.178;2022-11-20T01:30:30;4.60;;;1.27;;
48524;SDS011;34316;51.514;-0.178;2022-11-20T01:32:31;1.98;;;0.88;;
48524;SDS011;34316;51.514;-0.178;2022-11-20T01:34:33;2.50;;;1.08;;
48524;SDS011;34316;51.514;-0.178;2022-11-20T01:36:35;2.80;;;0.95;;
48524;SDS011;34316;51.514;-0.178;2022-11-20T01:38:38;3.95;;;1.15;;
48524;SDS011;34316;51.514;-0.178;2022-11-20T01:40:40;2.40;;;0.90;;
48524;SDS011;34316;51.514;-0.178;2022-11-20T01:42:45;4.28;;;1.00;;
48524;SDS011;34316;51.514;-0.178;2022-11-20T01:47:48;4.10;;;1.00;;
48524;SDS011;34316;51.514;-0.178;2022-11-20T01:49:56;3.07;;;1.10;;
48524;SDS011;34316;51.514;-0.178;2022-11-20T01:52:07;5.43;;;0.90;;
48524;SDS011;34316;51.514;-0.178;2022-11-20T01:54:17;3.75;;;0.90;;
48524;SDS011;34316;51.514;-0.178;2022-11-20T01:56:45;2.35;;;0.90;;
48524;SDS011;34316;51.514;-0.178;2022-11-20T01:58:51;2.60;;;1.10;;
48524;SDS011;34316;51.514;-0.178;2022-11-20T02:00:56;3.45;;;1.33;;
48524;SDS011;34316;51.514;-0.178;2022-11-20T02:03:03;2.95;;;0.90;;
48524;SDS011;34316;51.514;-0.178;2022-11-20T02:05:18;4.68;;;1.25;;
48524;SDS011;34316;51.514;-0.178;2022-11-20T02:07:22;3.40;;;1.00;;
48524;SDS011;34316;51.514;-0.178;2022-11-20T02:09:25;3.85;;;1.35;;
48524;SDS011;34316;51.514;-0.178;2022-11-20T02:11:27;5.00;;;1.17;;
48524;SDS011;34316;51.514;-0.178;2022-11-20T02:13:29;2.63;;;1.00;;
48524;SDS011;34316;51.514;-0.178;2022-11-20T02:15:45;2.88;;;1.00;;
48524;SDS011;34316;51.514;-0.178;2022-11-20T02:17:47;1.73;;;0.77;;
48524;SDS011;34316;51.514;-0.178;2022-11-20T02:19:49;2.15;;;0.85;;
48524;SDS011;34316;51.514;-0.178;2022-11-20T02:21:56;3.83;;;1.25;;
48524;SDS011;34316;51.514;-0.178;2022-11-20T02:24:13;6.22;;;1.05;;
48524;SDS011;34316;51.514;-0.178;2022-11-20T02:26:16;2.53;;;1.00;;
48524;SDS011;34316;51.514;-0.178;2022-11-20T02:28:18;3.10;;;0.93;;
48524;SDS011;34316;51.514;-0.178;2022-11-20T02:30:19;2.00;;;1.00;;
48524;SDS011;34316;51.514;-0.178;2022-11-20T02:32:31;1.70;;;0.80;;
48524;SDS011;34316;51.514;-0.178;2022-11-20T02:34:34;1.40;;;0.70;;
48524;SDS011;34316;51.514;-0.178;2022-11-20T02:36:36;4.63;;;1.00;;
48524;SDS011;34316;51.514;-0.178;2022-11-20T02:38:41;3.42;;;1.00;;
48524;SDS011;34316;51.514;-0.178;2022-11-20T02:40:43;6.38;;;1.10;;
48524;SDS011;34316;51.514;-0.178;2022-11-20T02:42:45;5.75;;;1.15;;
48524;SDS011;34316;51.514;-0.178;2022-11-20T02:44:46;2.47;;;0.82;;
48524;SDS011;34316;51.514;-0.178;2022-11-20T02:46:48;2.00;;;0.82;;
48524;SDS011;34316;51.514;-0.178;2022-11-20T02:48:50;3.00;;;1.15;;
48524;SDS011;34316;51.514;-0.178;2022-11-20T02:50:51;2.30;;;1.00;;
48524;SDS011;34316;51.514;-0.178;2022-11-20T02:52:53;3.30;;;1.10;;
48524;SDS011;34316;51.514;-0.178;2022-11-20T02:54:55;3.30;;;0.98;;
48524;SDS011;34316;51.514;-0.178;2022-11-20T02:56:56;9.73;;;1.38;;
48524;SDS011;34316;51.514;-0.178;2022-11-20T02:58:58;2.30;;;1.00;;
48524;SDS011;34316;51.514;-0.178;2022-11-20T03:01:00;3.83;;;1.20;;
48524;SDS011;34316;51.514;-0.178;2022-11-20T03:03:01;2.55;;;1.00;;
48524;SDS011;34316;51.514;-0.178;2022-11-20T03:05:03;3.22;;;1.30;;
48524;SDS011;34316;51.514;-0.178;2022-11-20T03:07:05;4.25;;;1.35;;
48524;SDS011;34316;51.514;-0.178;2022-11-20T03:09:07;3.08;;;1.20;;
48524;SDS011;34316;51.514;-0.178;2022-11-20T03:11:08;6.45;;;1.35;;
48524;SDS011;34316;51.514;-0.178;2022-11-20T03:13:10;3.42;;;1.10;;
48524;SDS011;34316;51.514;-0.178;2022-11-20T03:15:12;2.47;;;1.10;;
48524;SDS011;34316;51.514;-0.178;2022-11-20T03:17:14;3.17;;;1.33;;
48524;SDS011;34316;51.514;-0.178;2022-11-20T03:19:15;4.85;;;1.27;;
48524;SDS011;34316;51.514;-0.178;2022-11-20T03:21:17;3.30;;;1.25;;
48524;SDS011;34316;51.514;-0.178;2022-11-20T03:23:19;3.58;;;1.10;;
48524;SDS011;34316;51.514;-0.178;2022-11-20T03:25:21;3.58;;;1.23;;
48524;SDS011;34316;51.514;-0.178;2022-11-20T03:27:23;2.80;;;1.10;;
48524;SDS011;34316;51.514;-0.178;2022-11-20T03:29:24;3.85;;;0.95;;
48524;SDS011;34316;51.514;-0.178;2022-11-20T03:31:27;3.00;;;1.00;;
48524;SDS011;34316;51.514;-0.178;2022-11-20T03:33:31;2.80;;;1.08;;
48524;SDS011;34316;51.514;-0.178;2022-11-20T03:35:33;1.52;;;0.80;;
48524;SDS011;34316;51.514;-0.178;2022-11-20T03:37:35;3.17;;;1.30;;
48524;SDS011;34316;51.514;-0.178;2022-11-20T03:39:36;6.15;;;0.90;;
48524;SDS011;34316;51.514;-0.178;2022-11-20T03:41:39;6.40;;;1.30;;
48524;SDS011;34316;51.514;-0.178;2022-11-20T03:43:41;3.95;;;1.02;;
48524;SDS011;34316;51.514;-0.178;2022-11-20T03:45:43;3.28;;;1.30;;
48524;SDS011;34316;51.514;-0.178;2022-11-20T03:47:45;2.10;;;0.90;;
48524;SDS011;34316;51.514;-0.178;2022-11-20T03:49:47;6.05;;;1.27;;
48524;SDS011;34316;51.514;-0.178;2022-11-20T03:51:48;3.53;;;0.98;;
48524;SDS011;34316;51.514;-0.178;2022-11-20T03:53:51;3.92;;;1.10;;
48524;SDS011;34316;51.514;-0.178;2022-11-20T03:55:54;3.33;;;1.35;;
48524;SDS011;34316;51.514;-0.178;2022-11-20T03:57:55;2.08;;;1.08;;
48524;SDS011;34316;51.514;-0.178;2022-11-20T03:59:57;4.68;;;1.38;;
48524;SDS011;34316;51.514;-0.178;2022-11-20T04:01:59;6.88;;;1.45;;
48524;SDS011;34316;51.514;-0.178;2022-11-20T04:04:00;5.47;;;1.80;;
48524;SDS011;34316;51.514;-0.178;2022-11-20T04:06:12;3.40;;;0.93;;
48524;SDS011;34316;51.514;-0.178;2022-11-20T04:08:18;2.67;;;0.90;;
48524;SDS011;34316;51.514;-0.178;2022-11-20T04:10:20;2.55;;;1.00;;
48524;SDS011;34316;51.514;-0.178;2022-11-20T04:12:22;3.63;;;1.13;;
48524;SDS011;34316;51.514;-0.178;2022-11-20T04:14:23;2.72;;;1.20;;
48524;SDS011;34316;51.514;-0.178;2022-11-20T04:16:26;6.13;;;1.10;;
48524;SDS011;34316;51.514;-0.178;2022-11-20T04:18:30;3.75;;;1.30;;
48524;SDS011;34316;51.514;-0.178;2022-11-20T04:20:31;3.65;;;0.90;;
48524;SDS011;34316;51.514;-0.178;2022-11-20T04:22:33;4.10;;;0.90;;
48524;SDS011;34316;51.514;-0.178;2022-11-20T04:24:35;3.25;;;0.90;;
48524;SDS011;34316;51.514;-0.178;2022-11-20T04:26:36;2.78;;;1.00;;
48524;SDS011;34316;51.514;-0.178;2022-11-20T04:28:38;3.42;;;1.42;;
48524;SDS011;34316;51.514;-0.178;2022-11-20T04:30:40;5.68;;;1.25;;
48524;SDS011;34316;51.514;-0.178;2022-11-20T04:32:42;2.90;;;0.90;;
48524;SDS011;34316;51.514;-0.178;2022-11-20T04:34:44;3.03;;;1.10;;
48524;SDS011;34316;51.514;-0.178;2022-11-20T04:36:45;2.85;;;1.08;;
48524;SDS011;34316;51.514;-0.178;2022-11-20T04:38:50;4.63;;;1.20;;
48524;SDS011;34316;51.514;-0.178;2022-11-20T04:40:59;4.53;;;1.25;;
48524;SDS011;34316;51.514;-0.178;2022-11-20T04:43:02;3.97;;;1.00;;
48524;SDS011;34316;51.514;-0.178;2022-11-20T04:45:04;2.28;;;0.95;;
48524;SDS011;34316;51.514;-0.178;2022-11-20T04:47:06;2.75;;;1.08;;
48524;SDS011;34316;51.514;-0.178;2022-11-20T04:49:07;2.67;;;1.05;;
48524;SDS011;34316;51.514;-0.178;2022-11-20T04:51:09;3.25;;;1.05;;
48524;SDS011;34316;51.514;-0.178;2022-11-20T04:53:11;4.00;;;1.00;;
48524;SDS011;34316;51.514;-0.178;2022-11-20T04:55:13;1.92;;;0.95;;
48524;SDS011;34316;51.514;-0.178;2022-11-20T04:57:15;2.45;;;0.80;;
48524;SDS011;34316;51.514;-0.178;2022-11-20T04:59:16;2.50;;;0.80;;
48524;SDS011;34316;51.514;-0.178;2022-11-20T05:01:20;4.00;;;1.20;;
48524;SDS011;34316;51.514;-0.178;2022-11-20T05:03:22;2.63;;;1.02;;
48524;SDS011;34316;51.514;-0.178;2022-11-20T05:05:24;5.47;;;1.25;;
48524;SDS011;34316;51.514;-0.178;2022-11-20T05:07:26;2.45;;;1.10;;
48524;SDS011;34316;51.514;-0.178;2022-11-20T05:09:27;3.38;;;1.23;;
48524;SDS011;34316;51.514;-0.178;2022-11-20T05:11:29;2.05;;;1.13;;
48524;SDS011;34316;51.514;-0.178;2022-11-20T05:13:33;3.00;;;1.05;;
48524;SDS011;34316;51.514;-0.178;2022-11-20T05:15:35;6.05;;;1.05;;
48524;SDS011;34316;51.514;-0.178;2022-11-20T05:17:36;3.00;;;0.80;;
48524;SDS011;34316;51.514;-0.178;2022-11-20T05:19:38;2.00;;;0.85;;
48524;SDS011;34316;51.514;-0.178;2022-11-20T05:21:40;1.90;;;0.80;;
48524;SDS011;34316;51.514;-0.178;2022-11-20T05:23:42;1.50;;;0.65;;
48524;SDS011;34316;51.514;-0.178;2022-11-20T05:25:44;2.80;;;1.00;;
48524;SDS011;34316;51.514;-0.178;2022-11-20T05:27:46;4.75;;;0.80;;
48524;SDS011;34316;51.514;-0.178;2022-11-20T05:29:47;3.45;;;0.88;;
48524;SDS011;34316;51.514;-0.178;2022-11-20T05:31:49;2.88;;;0.98;;
48524;SDS011;34316;51.514;-0.178;2022-11-20T05:33:51;3.47;;;1.10;;
48524;SDS011;34316;51.514;-0.178;2022-11-20T05:35:53;3.97;;;1.25;;
48524;SDS011;34316;51.514;-0.178;2022-11-20T05:37:59;2.70;;;0.98;;
48524;SDS011;34316;51.514;-0.178;2022-11-20T05:40:01;3.28;;;1.05;;
48524;SDS011;34316;51.514;-0.178;2022-11-20T05:42:02;2.85;;;1.00;;
48524;SDS011;34316;51.514;-0.178;2022-11-20T05:44:22;2.90;;;1.15;;
48524;SDS011;34316;51.514;-0.178;2022-11-20T05:46:24;2.60;;;0.82;;
48524;SDS011;34316;51.514;-0.178;2022-11-20T05:48:29;2.67;;;1.10;;
48524;SDS011;34316;51.514;-0.178;2022-11-20T05:50:31;3.33;;;1.10;;
48524;SDS011;34316;51.514;-0.178;2022-11-20T05:52:33;1.95;;;1.20;;
48524;SDS011;34316;51.514;-0.178;2022-11-20T05:54:35;3.88;;;0.98;;
48524;SDS011;34316;51.514;-0.178;2022-11-20T05:56:37;4.88;;;1.33;;
48524;SDS011;34316;51.514;-0.178;2022-11-20T05:58:38;2.75;;;0.98;;
48524;SDS011;34316;51.514;-0.178;2022-11-20T06:00:41;4.18;;;1.25;;
48524;SDS011;34316;51.514;-0.178;2022-11-20T06:02:43;3.92;;;1.10;;
48524;SDS011;34316;51.514;-0.178;2022-11-20T06:04:44;3.38;;;1.00;;
48524;SDS011;34316;51.514;-0.178;2022-11-20T06:06:46;3.70;;;1.10;;
48524;SDS011;34316;51.514;-0.178;2022-11-20T06:08:48;4.35;;;1.00;;
48524;SDS011;34316;51.514;-0.178;2022-11-20T06:10:49;4.50;;;0.95;;
48524;SDS011;34316;51.514;-0.178;2022-11-20T06:12:51;3.40;;;1.23;;
48524;SDS011;34316;51.514;-0.178;2022-11-20T06:14:53;5.68;;;1.45;;
48524;SDS011;34316;51.514;-0.178;2022-11-20T06:16:55;3.75;;;1.10;;
48524;SDS011;34316;51.514;-0.178;2022-11-20T06:18:56;2.53;;;1.27;;
48524;SDS011;34316;51.514;-0.178;2022-11-20T06:20:59;5.65;;;1.60;;
48524;SDS011;34316;51.514;-0.178;2022-11-20T06:23:03;3.72;;;1.23;;
48524;SDS011;34316;51.514;-0.178;2022-11-20T06:25:05;6.57;;;1.15;;
48524;SDS011;34316;51.514;-0.178;2022-11-20T06:27:07;4.95;;;1.25;;
48524;SDS011;34316;51.514;-0.178;2022-11-20T06:29:08;8.80;;;1.45;;
48524;SDS011;34316;51.514;-0.178;2022-11-20T06:31:11;3.30;;;1.33;;
48524;SDS011;34316;51.514;-0.178;2022-11-20T06:33:14;2.20;;;1.17;;
48524;SDS011;34316;51.514;-0.178;2022-11-20T06:35:16;3.25;;;1.13;;
48524;SDS011;34316;51.514;-0.178;2022-11-20T06:37:18;4.72;;;1.35;;
48524;SDS011;34316;51.514;-0.178;2022-11-20T06:39:19;4.85;;;1.52;;
48524;SDS011;34316;51.514;-0.178;2022-11-20T06:41:21;2.53;;;1.60;;
48524;SDS011;34316;51.514;-0.178;2022-11-20T06:43:23;6.82;;;1.42;;
48524;SDS011;34316;51.514;-0.178;2022-11-20T06:45:25;2.97;;;1.35;;
48524;SDS011;34316;51.514;-0.178;2022-11-20T06:47:28;6.15;;;1.50;;
48524;SDS011;34316;51.514;-0.178;2022-11-20T06:49:29;3.45;;;1.40;;
48524;SDS011;34316;51.514;-0.178;2022-11-20T06:51:31;2.33;;;1.10;;
48524;SDS011;34316;51.514;-0.178;2022-11-20T06:53:33;3.60;;;1.20;;
48524;SDS011;34316;51.514;-0.178;2022-11-20T06:55:35;4.13;;;1.00;;
48524;SDS011;34316;51.514;-0.178;2022-11-20T06:57:37;3.83;;;0.90;;
48524;SDS011;34316;51.514;-0.178;2022-11-20T06:59:39;7.78;;;1.63;;
48524;SDS011;34316;51.514;-0.178;2022-11-20T07:01:40;4.03;;;1.40;;
48524;SDS011;34316;51.514;-0.178;2022-11-20T07:03:42;8.07;;;1.67;;
48524;SDS011;34316;51.514;-0.178;2022-11-20T07:05:44;4.95;;;1.58;;
48524;SDS011;34316;51.514;-0.178;2022-11-20T07:07:47;7.18;;;1.52;;
48524;SDS011;34316;51.514;-0.178;2022-11-20T07:09:48;3.55;;;1.10;;
48524;SDS011;34316;51.514;-0.178;2022-11-20T07:11:50;3.15;;;1.20;;
48524;SDS011;34316;51.514;-0.178;2022-11-20T07:13:52;5.28;;;1.10;;
48524;SDS011;34316;51.514;-0.178;2022-11-20T07:15:53;5.32;;;1.38;;
48524;SDS011;34316;51.514;-0.178;2022-11-20T07:17:58;4.03;;;1.10;;
48524;SDS011;34316;51.514;-0.178;2022-11-20T07:20:00;3.47;;;1.20;;
48524;SDS011;34316;51.514;-0.178;2022-11-20T07:22:02;4.30;;;1.17;;
48524;SDS011;34316;51.514;-0.178;2022-11-20T07:24:03;5.97;;;1.02;;
48524;SDS011;34316;51.514;-0.178;2022-11-20T07:26:06;4.60;;;1.15;;
48524;SDS011;34316;51.514;-0.178;2022-11-20T07:28:08;2.63;;;0.80;;
48524;SDS011;34316;51.514;-0.178;2022-11-20T07:30:12;2.45;;;1.23;;
48524;SDS011;34316;51.514;-0.178;2022-11-20T07:32:15;5.22;;;1.13;;
48524;SDS011;34316;51.514;-0.178;2022-11-20T07:34:16;7.07;;;1.35;;
48524;SDS011;34316;51.514;-0.178;2022-11-20T07:36:18;4.88;;;1.20;;
48524;SDS011;34316;51.514;-0.178;2022-11-20T07:38:20;5.63;;;1.60;;
48524;SDS011;34316;51.514;-0.178;2022-11-20T07:40:22;4.35;;;1.15;;
48524;SDS011;34316;51.514;-0.178;2022-11-20T07:42:23;6.88;;;1.48;;
48524;SDS011;34316;51.514;-0.178;2022-11-20T07:44:25;3.95;;;1.30;;
48524;SDS011;34316;51.514;-0.178;2022-11-20T07:46:36;5.82;;;1.30;;
48524;SDS011;34316;51.514;-0.178;2022-11-20T07:48:39;4.97;;;1.40;;
48524;SDS011;34316;51.514;-0.178;2022-11-20T07:50:40;4.50;;;1.33;;
48524;SDS011;34316;51.514;-0.178;2022-11-20T07:52:42;7.10;;;1.40;;
48524;SDS011;34316;51.514;-0.178;2022-11-20T07:54:44;5.25;;;1.05;;
48524;SDS011;34316;51.514;-0.178;2022-11-20T07:56:46;3.10;;;1.23;;
48524;SDS011;34316;51.514;-0.178;2022-11-20T07:58:48;8.20;;;1.00;;
48524;SDS011;34316;51.514;-0.178;2022-11-20T08:00:50;6.80;;;1.27;;
48524;SDS011;34316;51.514;-0.178;2022-11-20T08:02:52;5.82;;;1.40;;
48524;SDS011;34316;51.514;-0.178;2022-11-20T08:04:53;3.63;;;1.58;;
48524;SDS011;34316;51.514;-0.178;2022-11-20T08:06:55;4.72;;;1.60;;
48524;SDS011;34316;51.514;-0.178;2022-11-20T08:08:57;5.70;;;1.70;;
48524;SDS011;34316;51.514;-0.178;2022-11-20T08:10:59;6.88;;;2.00;;
48524;SDS011;34316;51.514;-0.178;2022-11-20T08:13:19;7.70;;;2.58;;
48524;SDS011;34316;51.514;-0.178;2022-11-20T08:15:39;5.95;;;1.33;;
48524;SDS011;34316;51.514;-0.178;2022-11-20T08:17:41;6.70;;;1.98;;
48524;SDS011;34316;51.514;-0.178;2022-11-20T08:20:03;5.40;;;2.40;;
48524;SDS011;34316;51.514;-0.178;2022-11-20T08:22:05;5.00;;;1.83;;
48524;SDS011;34316;51.514;-0.178;2022-11-20T08:24:09;3.95;;;1.70;;
48524;SDS011;34316;51.514;-0.178;2022-11-20T08:26:10;7.07;;;1.73;;
48524;SDS011;34316;51.514;-0.178;2022-11-20T08:28:12;5.53;;;1.42;;
48524;SDS011;34316;51.514;-0.178;2022-11-20T08:30:22;8.75;;;1.95;;
48524;SDS011;34316;51.514;-0.178;2022-11-20T08:32:23;2.58;;;1.30;;
48524;SDS011;34316;51.514;-0.178;2022-11-20T08:34:25;6.32;;;1.80;;
48524;SDS011;34316;51.514;-0.178;2022-11-20T08:36:27;8.20;;;1.67;;
48524;SDS011;34316;51.514;-0.178;2022-11-20T08:38:29;5.20;;;1.30;;
48524;SDS011;34316;51.514;-0.178;2022-11-20T08:40:32;7.25;;;1.60;;
48524;SDS011;34316;51.514;-0.178;2022-11-20T08:42:34;5.20;;;1.27;;
48524;SDS011;34316;51.514;-0.178;2022-11-20T08:44:35;7.53;;;1.48;;
48524;SDS011;34316;51.514;-0.178;2022-11-20T08:46:38;5.93;;;1.45;;
48524;SDS011;34316;51.514;-0.178;2022-11-20T08:48:42;7.15;;;1.45;;
48524;SDS011;34316;51.514;-0.178;2022-11-20T08:50:45;4.85;;;1.13;;
48524;SDS011;34316;51.514;-0.178;2022-11-20T08:52:47;4.25;;;1.40;;
48524;SDS011;34316;51.514;-0.178;2022-11-20T08:54:48;5.65;;;1.80;;
48524;SDS011;34316;51.514;-0.178;2022-11-20T08:56:50;7.38;;;2.08;;
48524;SDS011;34316;51.514;-0.178;2022-11-20T08:58:52;6.63;;;2.40;;
48524;SDS011;34316;51.514;-0.178;2022-11-20T09:01:13;6.55;;;2.17;;
48524;SDS011;34316;51.514;-0.178;2022-11-20T09:03:33;8.57;;;2.28;;
48524;SDS011;34316;51.514;-0.178;2022-11-20T09:05:35;8.00;;;2.60;;
48524;SDS011;34316;51.514;-0.178;2022-11-20T09:07:37;4.03;;;1.83;;
48524;SDS011;34316;51.514;-0.178;2022-11-20T09:09:38;6.20;;;1.98;;
48524;SDS011;34316;51.514;-0.178;2022-11-20T09:11:40;5.88;;;2.08;;
48524;SDS011;34316;51.514;-0.178;2022-11-20T09:13:42;5.90;;;2.20;;
48524;SDS011;34316;51.514;-0.178;2022-11-20T09:15:43;8.98;;;1.65;;
48524;SDS011;34316;51.514;-0.178;2022-11-20T09:17:55;3.97;;;1.45;;
48524;SDS011;34316;51.514;-0.178;2022-11-20T09:20:00;4.30;;;1.50;;
48524;SDS011;34316;51.514;-0.178;2022-11-20T09:22:02;4.20;;;1.75;;
48524;SDS011;34316;51.514;-0.178;2022-11-20T09:24:04;4.53;;;1.48;;
48524;SDS011;34316;51.514;-0.178;2022-11-20T09:26:07;4.72;;;1.58;;
48524;SDS011;34316;51.514;-0.178;2022-11-20T09:28:11;1.55;;;0.90;;
48524;SDS011;34316;51.514;-0.178;2022-11-20T09:30:13;4.25;;;1.10;;
48524;SDS011;34316;51.514;-0.178;2022-11-20T09:32:15;2.63;;;1.13;;
48524;SDS011;34316;51.514;-0.178;2022-11-20T09:34:17;4.65;;;1.35;;
48524;SDS011;34316;51.514;-0.178;2022-11-20T09:36:19;2.25;;;0.98;;
48524;SDS011;34316;51.514;-0.178;2022-11-20T09:38:21;3.00;;;1.20;;
48524;SDS011;34316;51.514;-0.178;2022-11-20T09:40:24;2.95;;;1.30;;
48524;SDS011;34316;51.514;-0.178;2022-11-20T09:46:53;5.60;;;1.63;;
48524;SDS011;34316;51.514;-0.178;2022-11-20T09:55:51;7.65;;;2.50;;
48524;SDS011;34316;51.514;-0.178;2022-11-20T09:57:52;5.63;;;2.00;;
48524;SDS011;34316;51.514;-0.178;2022-11-20T09:59:59;6.10;;;2.40;;
48524;SDS011;34316;51.514;-0.178;2022-11-20T10:02:02;7.15;;;2.83;;
48524;SDS011;34316;51.514;-0.178;2022-11-20T10:04:17;8.65;;;2.40;;
48524;SDS011;34316;51.514;-0.178;2022-11-20T10:06:28;6.10;;;1.50;;
48524;SDS011;34316;51.514;-0.178;2022-11-20T10:08:47;8.48;;;1.83;;
48524;SDS011;34316;51.514;-0.178;2022-11-20T10:10:53;4.85;;;2.00;;
48524;SDS011;34316;51.514;-0.178;2022-11-20T10:13:14;7.10;;;2.25;;
48524;SDS011;34316;51.514;-0.178;2022-11-20T10:15:45;6.30;;;2.30;;
48524;SDS011;34316;51.514;-0.178;2022-11-20T10:17:58;4.43;;;1.83;;
48524;SDS011;34316;51.514;-0.178;2022-11-20T10:26:57;6.22;;;2.28;;
48524;SDS011;34316;51.514;-0.178;2022-11-20T10:29:12;6.20;;;2.25;;
48524;SDS011;34316;51.514;-0.178;2022-11-20T10:31:34;3.92;;;1.77;;
48524;SDS011;34316;51.514;-0.178;2022-11-20T10:33:41;4.80;;;2.60;;
48524;SDS011;34316;51.514;-0.178;2022-11-20T10:36:15;8.20;;;2.42;;
48524;SDS011;34316;51.514;-0.178;2022-11-20T10:38:31;5.95;;;1.77;;
48524;SDS011;34316;51.514;-0.178;2022-11-20T10:41:01;6.88;;;3.08;;
48524;SDS011;34316;51.514;-0.178;2022-11-20T10:43:32;3.67;;;2.10;;
48524;SDS011;34316;51.514;-0.178;2022-11-20T10:48:24;17.83;;;4.88;;
48524;SDS011;34316;51.514;-0.178;2022-11-20T10:50:27;13.20;;;3.47;;
48524;SDS011;34316;51.514;-0.178;2022-11-20T10:52:33;9.57;;;3.10;;
48524;SDS011;34316;51.514;-0.178;2022-11-20T10:55:01;11.52;;;3.28;;
48524;SDS011;34316;51.514;-0.178;2022-11-20T11:00:09;11.63;;;3.58;;
48524;SDS011;34316;51.514;-0.178;2022-11-20T11:02:19;12.32;;;3.75;;
48524;SDS011;34316;51.514;-0.178;2022-11-20T11:04:39;5.43;;;2.60;;
48524;SDS011;34316;51.514;-0.178;2022-11-20T11:06:46;30.98;;;3.63;;
48524;SDS011;34316;51.514;-0.178;2022-11-20T11:08:49;6.30;;;2.42;;
48524;SDS011;34316;51.514;-0.178;2022-11-20T11:10:55;2.72;;;1.42;;
48524;SDS011;34316;51.514;-0.178;2022-11-20T11:12:58;7.97;;;2.15;;
48524;SDS011;34316;51.514;-0.178;2022-11-20T11:15:00;6.05;;;1.42;;
48524;SDS011;34316;51.514;-0.178;2022-11-20T11:17:02;4.90;;;1.50;;
48524;SDS011;34316;51.514;-0.178;2022-11-20T11:19:10;4.38;;;1.20;;
48524;SDS011;34316;51.514;-0.178;2022-11-20T11:21:13;4.28;;;1.50;;
48524;SDS011;34316;51.514;-0.178;2022-11-20T11:23:35;3.47;;;1.65;;
48524;SDS011;34316;51.514;-0.178;2022-11-20T11:27:47;2.88;;;0.93;;
48524;SDS011;34316;51.514;-0.178;2022-11-20T11:29:50;4.22;;;1.10;;
48524;SDS011;34316;51.514;-0.178;2022-11-20T11:32:13;2.47;;;1.05;;
48524;SDS011;34316;51.514;-0.178;2022-11-20T11:34:23;2.55;;;1.00;;
48524;SDS011;34316;51.514;-0.178;2022-11-20T11:36:24;3.10;;;0.93;;
48524;SDS011;34316;51.514;-0.178;2022-11-20T11:38:36;3.88;;;1.10;;
48524;SDS011;34316;51.514;-0.178;2022-11-20T11:40:40;5.03;;;1.55;;
48524;SDS011;34316;51.514;-0.178;2022-11-20T11:42:42;5.90;;;1.17;;
48524;SDS011;34316;51.514;-0.178;2022-11-20T11:44:59;1.90;;;1.08;;
48524;SDS011;34316;51.514;-0.178;2022-11-20T11:47:23;4.20;;;1.40;;
48524;SDS011;34316;51.514;-0.178;2022-11-20T11:49:27;8.50;;;1.50;;
48524;SDS011;34316;51.514;-0.178;2022-11-20T11:51:33;5.47;;;1.75;;
48524;SDS011;34316;51.514;-0.178;2022-11-20T11:53:38;2.67;;;1.27;;
48524;SDS011;34316;51.514;-0.178;2022-11-20T11:55:44;5.22;;;1.50;;
48524;SDS011;34316;51.514;-0.178;2022-11-20T11:58:09;4.90;;;2.05;;
48524;SDS011;34316;51.514;-0.178;2022-11-20T12:02:23;4.28;;;1.50;;
48524;SDS011;34316;51.514;-0.178;2022-11-20T12:04:43;6.47;;;1.83;;
48524;SDS011;34316;51.514;-0.178;2022-11-20T12:06:50;4.07;;;1.35;;
48524;SDS011;34316;51.514;-0.178;2022-11-20T12:09:05;6.25;;;1.35;;
48524;SDS011;34316;51.514;-0.178;2022-11-20T12:15:22;3.22;;;1.00;;
48524;SDS011;34316;51.514;-0.178;2022-11-20T12:17:27;2.90;;;1.10;;
48524;SDS011;34316;51.514;-0.178;2022-11-20T12:19:33;3.60;;;1.30;;
48524;SDS011;34316;51.514;-0.178;2022-11-20T12:21:57;2.90;;;0.73;;
48524;SDS011;34316;51.514;-0.178;2022-11-20T12:24:18;4.78;;;0.90;;
48524;SDS011;34316;51.514;-0.178;2022-11-20T12:31:18;5.78;;;1.52;;
48524;SDS011;34316;51.514;-0.178;2022-11-20T12:43:46;2.80;;;1.40;;
48524;SDS011;34316;51.514;-0.178;2022-11-20T12:51:34;12.63;;;4.55;;
48524;SDS011;34316;51.514;-0.178;2022-11-20T12:53:51;14.05;;;4.07;;
48524;SDS011;34316;51.514;-0.178;2022-11-20T12:58:43;7.68;;;2.20;;
48524;SDS011;34316;51.514;-0.178;2022-11-20T13:03:41;4.47;;;2.22;;
48524;SDS011;34316;51.514;-0.178;2022-11-20T13:05:53;7.00;;;2.80;;
48524;SDS011;34316;51.514;-0.178;2022-11-20T13:08:00;9.45;;;3.33;;
48524;SDS011;34316;51.514;-0.178;2022-11-20T13:10:02;7.05;;;2.72;;
48524;SDS011;34316;51.514;-0.178;2022-11-20T13:18:52;5.72;;;3.88;;
48524;SDS011;34316;51.514;-0.178;2022-11-20T13:20:53;4.28;;;2.45;;
48524;SDS011;34316;51.514;-0.178;2022-11-20T13:22:55;6.35;;;3.35;;
48524;SDS011;34316;51.514;-0.178;2022-11-20T13:24:59;8.38;;;3.35;;
48524;SDS011;34316;51.514;-0.178;2022-11-20T13:29:24;8.90;;;3.03;;